createdAt,value
2022-08-28T00:00:59.628Z,19.23
2022-08-28T00:03:26.531Z,27.47
2022-08-28T00:05:53.667Z,28.93
2022-08-28T00:08:20.573Z,31.87
2022-08-28T00:10:47.564Z,21.70
2022-08-28T00:13:18.852Z,21.70
2022-08-28T00:15:49.988Z,21.83
2022-08-28T00:18:18.084Z,33.33
2022-08-28T00:20:46.421Z,18.33
2022-08-28T00:23:14.697Z,25.37
2022-08-28T00:25:41.640Z,19.80
2022-08-28T00:28:23.394Z,25.10
2022-08-28T00:30:54.766Z,28.90
2022-08-28T00:33:33.018Z,25.93
2022-08-28T00:36:01.615Z,20.03
2022-08-28T00:38:29.428Z,26.83
2022-08-28T00:41:00.296Z,23.03
2022-08-28T00:43:42.115Z,23.37
2022-08-28T00:46:23.093Z,21.20
2022-08-28T00:48:50.784Z,21.97
2022-08-28T00:51:38.689Z,15.63
2022-08-28T00:54:07.915Z,24.80
2022-08-28T00:56:36.166Z,22.07
2022-08-28T00:59:09.492Z,21.17
2022-08-28T01:01:38.761Z,20.40
2022-08-28T01:04:06.320Z,22.73
2022-08-28T01:06:35.667Z,30.77
2022-08-28T01:09:03.991Z,23.77
2022-08-28T01:11:32.388Z,23.70
2022-08-28T01:14:02.971Z,21.60
2022-08-28T01:16:33.038Z,19.20
2022-08-28T01:19:03.495Z,23.50
2022-08-28T01:22:00.608Z,26.20
2022-08-28T01:24:28.023Z,25.73
2022-08-28T01:26:54.950Z,24.03
2022-08-28T01:29:21.868Z,21.83
2022-08-28T01:31:48.818Z,20.07
2022-08-28T01:34:15.733Z,26.50
2022-08-28T01:36:43.255Z,29.87
2022-08-28T01:39:22.352Z,29.93
2022-08-28T01:41:54.639Z,22.73
2022-08-28T01:44:25.772Z,25.70
2022-08-28T01:46:56.860Z,22.43
2022-08-28T01:49:25.227Z,24.37
2022-08-28T01:51:52.330Z,25.00
2022-08-28T01:54:21.692Z,32.90
2022-08-28T01:56:48.615Z,16.73
2022-08-28T01:59:15.709Z,19.53
2022-08-28T02:01:43.483Z,19.57
2022-08-28T02:04:11.488Z,23.43
2022-08-28T02:06:38.432Z,20.13
2022-08-28T02:09:07.076Z,22.90
2022-08-28T02:11:46.508Z,19.60
2022-08-28T02:14:14.485Z,20.57
2022-08-28T02:16:41.409Z,25.57
2022-08-28T02:19:08.299Z,22.80
2022-08-28T02:21:35.588Z,22.73
2022-08-28T02:24:03.195Z,19.20
2022-08-28T02:26:31.726Z,29.77
2022-08-28T02:28:59.128Z,25.13
2022-08-28T02:31:27.590Z,21.63
2022-08-28T02:33:55.548Z,18.10
2022-08-28T02:36:23.276Z,15.50
2022-08-28T02:38:57.452Z,15.57
2022-08-28T02:41:24.978Z,19.57
2022-08-28T02:43:52.324Z,24.87
2022-08-28T02:46:19.285Z,19.63
2022-08-28T02:48:46.217Z,14.00
2022-08-28T02:51:14.808Z,14.97
2022-08-28T02:53:42.970Z,26.23
2022-08-28T02:56:10.200Z,23.00
2022-08-28T02:58:37.511Z,24.80
2022-08-28T03:01:07.079Z,15.70
2022-08-28T03:03:35.003Z,21.53
2022-08-28T03:06:04.517Z,20.27
2022-08-28T03:08:32.199Z,27.17
2022-08-28T03:11:00.123Z,14.83
2022-08-28T03:13:27.470Z,23.03
2022-08-28T03:15:56.144Z,15.30
2022-08-28T03:18:25.402Z,15.27
2022-08-28T03:20:53.202Z,19.90
2022-08-28T03:23:26.232Z,15.73
2022-08-28T03:26:10.311Z,27.27
2022-08-28T03:28:44.723Z,19.63
2022-08-28T03:31:15.779Z,17.67
2022-08-28T03:33:43.104Z,30.93
2022-08-28T03:36:13.072Z,19.33
2022-08-28T03:38:41.845Z,16.47
2022-08-28T03:41:15.805Z,27.87
2022-08-28T03:43:42.931Z,19.23
2022-08-28T03:46:18.076Z,21.33
2022-08-28T03:48:45.519Z,17.00
2022-08-28T03:51:17.714Z,25.80
2022-08-28T03:53:46.162Z,20.67
2022-08-28T03:56:18.827Z,20.87
2022-08-28T03:58:45.741Z,18.77
2022-08-28T04:01:12.697Z,26.10
2022-08-28T04:03:39.786Z,18.83
2022-08-28T04:06:07.096Z,26.77
2022-08-28T04:08:34.041Z,21.13
2022-08-28T04:11:00.984Z,28.27
2022-08-28T04:13:28.632Z,24.70
2022-08-28T04:16:11.265Z,28.10
2022-08-28T04:18:41.511Z,26.67
2022-08-28T04:21:21.467Z,30.97
2022-08-28T04:23:48.640Z,27.37
2022-08-28T04:26:23.444Z,22.43
2022-08-28T04:28:50.947Z,34.17
2022-08-28T04:31:32.207Z,30.93
2022-08-28T04:34:05.966Z,23.90
2022-08-28T04:36:36.313Z,27.03
2022-08-28T04:39:08.456Z,28.13
2022-08-28T04:41:38.553Z,28.93
2022-08-28T04:44:06.489Z,22.57
2022-08-28T04:46:33.682Z,28.33
2022-08-28T04:49:01.008Z,29.53
2022-08-28T04:51:28.704Z,28.90
2022-08-28T04:53:56.970Z,21.90
2022-08-28T04:56:24.809Z,34.00
2022-08-28T04:58:51.848Z,34.50
2022-08-28T05:01:24.217Z,31.30
2022-08-28T05:03:57.636Z,28.63
2022-08-28T05:06:26.992Z,36.30
2022-08-28T05:08:57.473Z,32.93
2022-08-28T05:11:33.530Z,34.53
2022-08-28T05:14:05.026Z,30.90
2022-08-28T05:16:34.610Z,33.70
2022-08-28T05:19:02.553Z,26.73
2022-08-28T05:21:29.475Z,22.57
2022-08-28T05:23:57.859Z,34.07
2022-08-28T05:26:27.036Z,26.60
2022-08-28T05:28:56.495Z,27.23
2022-08-28T05:31:24.693Z,26.73
2022-08-28T05:33:53.035Z,37.50
2022-08-28T05:36:22.976Z,24.73
2022-08-28T05:38:56.131Z,29.40
2022-08-28T05:41:26.661Z,31.20
2022-08-28T05:43:54.091Z,24.43
2022-08-28T05:46:21.562Z,25.60
2022-08-28T05:48:49.325Z,26.10
2022-08-28T05:51:22.344Z,23.40
2022-08-28T05:53:49.974Z,21.90
2022-08-28T05:56:21.884Z,30.17
2022-08-28T05:58:48.979Z,24.63
2022-08-28T06:01:21.065Z,26.03
2022-08-28T06:04:05.869Z,25.73
2022-08-28T06:06:34.453Z,30.10
2022-08-28T06:09:07.141Z,28.00
2022-08-28T06:11:34.690Z,31.23
2022-08-28T06:14:04.445Z,32.90
2022-08-28T06:16:32.549Z,24.30
2022-08-28T06:19:00.671Z,30.67
2022-08-28T06:21:28.700Z,30.10
2022-08-28T06:23:56.110Z,31.83
2022-08-28T06:26:23.712Z,29.37
2022-08-28T06:28:52.396Z,27.97
2022-08-28T06:31:24.212Z,34.30
2022-08-28T06:33:54.220Z,28.27
2022-08-28T06:36:22.551Z,31.67
2022-08-28T06:38:49.940Z,33.37
2022-08-28T06:41:17.140Z,33.20
2022-08-28T06:43:44.070Z,32.57
2022-08-28T06:46:10.999Z,39.30
2022-08-28T06:48:38.190Z,33.53
2022-08-28T06:51:11.455Z,26.00
2022-08-28T06:53:41.275Z,40.40
2022-08-28T06:56:11.268Z,34.80
2022-08-28T06:58:43.504Z,29.97
2022-08-28T07:01:29.579Z,33.87
2022-08-28T07:04:00.343Z,30.70
2022-08-28T07:06:34.528Z,28.13
2022-08-28T07:09:05.069Z,33.07
2022-08-28T07:11:33.808Z,28.33
2022-08-28T07:14:01.881Z,26.20
2022-08-28T07:16:34.171Z,27.80
2022-08-28T07:19:04.585Z,31.13
2022-08-28T07:21:38.798Z,27.27
2022-08-28T07:24:08.539Z,24.50
2022-08-28T07:26:36.015Z,26.07
2022-08-28T07:29:10.185Z,31.93
2022-08-28T07:31:42.045Z,20.33
2022-08-28T07:34:11.066Z,27.80
2022-08-28T07:36:38.731Z,21.30
2022-08-28T07:39:07.559Z,22.90
2022-08-28T07:41:39.000Z,20.50
2022-08-28T07:44:26.892Z,22.23
2022-08-28T07:47:00.476Z,27.47
2022-08-28T07:49:27.449Z,21.40
2022-08-28T07:51:54.622Z,29.23
2022-08-28T07:54:23.062Z,21.73
2022-08-28T07:56:50.690Z,26.97
2022-08-28T07:59:19.449Z,23.13
2022-08-28T08:01:48.890Z,27.73
2022-08-28T08:04:17.349Z,17.90
2022-08-28T08:06:45.263Z,17.53
2022-08-28T08:09:15.838Z,23.67
2022-08-28T08:11:42.959Z,21.50
2022-08-28T08:14:10.584Z,14.50
2022-08-28T08:16:41.237Z,14.37
2022-08-28T08:19:10.156Z,16.57
2022-08-28T08:21:37.669Z,17.50
2022-08-28T08:24:04.840Z,15.13
2022-08-28T08:26:32.369Z,14.77
2022-08-28T08:28:59.596Z,14.63
2022-08-28T08:31:32.498Z,17.00
2022-08-28T08:34:02.582Z,20.80
2022-08-28T08:36:32.294Z,18.33
2022-08-28T08:39:00.724Z,15.93
2022-08-28T08:41:40.216Z,21.03
2022-08-28T08:44:43.757Z,15.87
2022-08-28T08:47:22.041Z,13.17
2022-08-28T08:50:02.949Z,14.87
2022-08-28T08:52:50.492Z,18.57
2022-08-28T08:55:52.123Z,15.10
2022-08-28T08:58:36.484Z,12.83
2022-08-28T09:01:32.482Z,11.43
2022-08-28T09:04:40.598Z,15.50
2022-08-28T09:07:27.073Z,11.43
2022-08-28T09:09:56.596Z,15.13
2022-08-28T09:12:27.809Z,9.50
2022-08-28T09:15:08.942Z,13.13
2022-08-28T09:17:49.636Z,11.43
2022-08-28T09:20:32.647Z,14.73
2022-08-28T09:23:00.735Z,10.37
2022-08-28T09:25:54.799Z,11.67
2022-08-28T09:28:28.460Z,11.60
2022-08-28T09:31:00.244Z,12.70
2022-08-28T09:33:43.151Z,11.17
2022-08-28T09:36:34.043Z,9.37
2022-08-28T09:39:26.691Z,12.93
2022-08-28T09:42:34.972Z,13.00
2022-08-28T09:45:21.391Z,15.30
2022-08-28T09:47:58.740Z,11.93
2022-08-28T09:50:32.639Z,13.23
2022-08-28T09:53:17.788Z,17.13
2022-08-28T09:56:14.418Z,15.57
2022-08-28T09:58:45.473Z,9.33
2022-08-28T10:01:50.778Z,13.30
2022-08-28T10:04:50.737Z,19.80
2022-08-28T10:07:56.011Z,11.80
2022-08-28T10:10:44.075Z,12.43
2022-08-28T10:13:30.289Z,14.67
2022-08-28T10:16:30.725Z,12.73
2022-08-28T10:19:06.273Z,21.60
2022-08-28T10:22:00.892Z,15.30
2022-08-28T10:24:53.247Z,11.60
2022-08-28T10:27:55.195Z,11.27
2022-08-28T10:30:24.859Z,15.70
2022-08-28T10:33:25.621Z,10.63
2022-08-28T10:36:33.260Z,14.17
2022-08-28T10:39:20.557Z,12.73
2022-08-28T10:41:55.672Z,31.63
2022-08-28T10:44:36.029Z,17.53
2022-08-28T10:47:04.517Z,13.23
2022-08-28T10:49:42.131Z,12.00
2022-08-28T10:52:27.733Z,12.60
2022-08-28T10:55:34.564Z,13.43
2022-08-28T10:58:24.127Z,12.60
2022-08-28T11:00:57.270Z,10.20
2022-08-28T11:03:35.076Z,11.10
2022-08-28T11:06:17.524Z,10.57
2022-08-28T11:08:55.911Z,12.87
2022-08-28T11:11:42.869Z,17.80
2022-08-28T11:14:11.050Z,14.03
2022-08-28T11:16:44.546Z,13.83
2022-08-28T11:19:44.962Z,14.03
2022-08-28T11:22:24.276Z,9.73
2022-08-28T11:25:26.583Z,14.80
2022-08-28T11:28:25.520Z,13.10
2022-08-28T11:31:01.314Z,11.87
2022-08-28T11:33:50.719Z,14.30
2022-08-28T11:36:20.506Z,15.00
2022-08-28T11:38:56.319Z,20.83
2022-08-28T11:41:34.304Z,16.77
2022-08-28T11:44:10.839Z,19.13
2022-08-28T11:46:42.104Z,18.30
2022-08-28T11:49:24.512Z,14.00
2022-08-28T11:52:30.493Z,14.57
2022-08-28T11:55:29.983Z,18.53
2022-08-28T11:58:16.117Z,15.93
2022-08-28T12:01:09.472Z,14.60
2022-08-28T12:03:54.921Z,12.60
2022-08-28T12:06:55.624Z,17.93
2022-08-28T12:09:42.153Z,17.50
2022-08-28T12:12:46.114Z,18.87
2022-08-28T12:15:28.307Z,13.27
2022-08-28T12:18:11.818Z,13.40
2022-08-28T12:20:52.059Z,16.00
2022-08-28T12:23:59.043Z,13.40
2022-08-28T12:26:35.841Z,14.07
2022-08-28T12:29:17.910Z,15.10
2022-08-28T12:32:30.224Z,14.10
2022-08-28T12:35:00.005Z,18.60
2022-08-28T12:37:52.824Z,13.03
2022-08-28T12:40:53.508Z,16.77
2022-08-28T12:43:46.573Z,15.10
2022-08-28T12:46:31.118Z,11.27
2022-08-28T12:49:05.867Z,13.30
2022-08-28T12:51:36.526Z,11.43
2022-08-28T12:54:07.375Z,10.37
2022-08-28T12:56:39.036Z,12.03
2022-08-28T12:59:27.100Z,19.73
2022-08-28T13:01:54.866Z,10.27
2022-08-28T13:04:34.423Z,20.27
2022-08-28T13:07:11.840Z,15.00
2022-08-28T13:09:47.370Z,14.67
2022-08-28T13:12:55.328Z,8.13
2022-08-28T13:15:53.458Z,10.80
2022-08-28T13:18:47.389Z,15.60
2022-08-28T13:21:33.949Z,14.17
2022-08-28T13:24:27.335Z,16.33
2022-08-28T13:27:01.604Z,13.23
2022-08-28T13:29:28.683Z,11.80
2022-08-28T13:32:17.387Z,12.30
2022-08-28T13:35:29.306Z,12.33
2022-08-28T13:38:00.445Z,17.73
2022-08-28T13:40:59.163Z,9.37
2022-08-28T13:43:40.915Z,12.50
2022-08-28T13:46:07.879Z,13.37
2022-08-28T13:48:34.800Z,19.03
2022-08-28T13:51:07.106Z,13.63
2022-08-28T13:53:37.714Z,12.93
2022-08-28T13:56:05.010Z,11.13
2022-08-28T13:58:31.945Z,17.80
2022-08-28T14:00:59.329Z,10.10
2022-08-28T14:03:35.643Z,11.53
2022-08-28T14:06:11.639Z,12.43
2022-08-28T14:08:40.654Z,13.70
2022-08-28T14:11:08.367Z,12.80
2022-08-28T14:13:40.275Z,11.70
2022-08-28T14:16:16.706Z,13.77
2022-08-28T14:18:43.768Z,10.40
2022-08-28T14:21:10.704Z,11.40
2022-08-28T14:23:38.006Z,13.90
2022-08-28T14:26:05.773Z,13.90
2022-08-28T14:28:32.794Z,11.57
2022-08-28T14:30:59.751Z,19.60
2022-08-28T14:33:26.741Z,20.37
2022-08-28T14:35:54.889Z,13.67
2022-08-28T14:38:21.864Z,11.30
2022-08-28T14:40:49.417Z,10.30
2022-08-28T14:43:16.480Z,10.83
2022-08-28T14:45:49.369Z,14.33
2022-08-28T14:48:18.335Z,12.80
2022-08-28T14:50:48.134Z,14.00
2022-08-28T14:53:16.989Z,13.40
2022-08-28T14:55:49.687Z,19.73
2022-08-28T14:58:19.713Z,13.20
2022-08-28T15:00:49.932Z,26.83
2022-08-28T15:03:18.907Z,16.73
2022-08-28T15:05:46.503Z,12.10
2022-08-28T15:08:16.988Z,13.60
2022-08-28T15:10:44.722Z,18.03
2022-08-28T15:13:12.682Z,16.57
2022-08-28T15:15:42.153Z,15.90
2022-08-28T15:18:10.831Z,13.03
2022-08-28T15:20:40.307Z,15.50
2022-08-28T15:23:07.747Z,12.47
2022-08-28T15:25:34.683Z,13.53
2022-08-28T15:28:01.973Z,20.13
2022-08-28T15:30:28.881Z,15.53
2022-08-28T15:32:55.896Z,17.73
2022-08-28T15:35:22.858Z,12.73
2022-08-28T15:37:49.996Z,11.17
2022-08-28T15:40:35.867Z,18.70
2022-08-28T15:43:02.806Z,14.30
2022-08-28T15:45:29.775Z,13.30
2022-08-28T15:47:58.586Z,15.53
2022-08-28T15:50:25.496Z,12.80
2022-08-28T15:52:53.548Z,12.73
2022-08-28T15:55:20.495Z,11.73
2022-08-28T15:57:47.409Z,16.40
2022-08-28T16:00:14.920Z,14.27
2022-08-28T16:02:41.881Z,20.93
2022-08-28T16:05:09.597Z,14.67
2022-08-28T16:07:36.724Z,13.53
2022-08-28T16:10:07.126Z,11.67
2022-08-28T16:12:35.532Z,15.80
2022-08-28T16:15:02.897Z,12.27
2022-08-28T16:17:29.821Z,13.27
2022-08-28T16:19:57.331Z,10.57
2022-08-28T16:22:24.503Z,14.33
2022-08-28T16:24:51.630Z,13.40
2022-08-28T16:27:18.543Z,11.40
2022-08-28T16:29:45.807Z,20.70
2022-08-28T16:32:12.745Z,13.90
2022-08-28T16:34:39.991Z,13.00
2022-08-28T16:37:07.923Z,10.20
2022-08-28T16:39:36.388Z,12.50
2022-08-28T16:42:03.596Z,9.93
2022-08-28T16:44:30.608Z,9.90
2022-08-28T16:46:57.899Z,11.00
2022-08-28T16:49:25.408Z,13.47
2022-08-28T16:51:52.788Z,10.43
2022-08-28T16:54:21.428Z,10.03
2022-08-28T16:56:48.416Z,11.47
2022-08-28T16:59:20.547Z,12.10
2022-08-28T17:01:52.964Z,13.43
2022-08-28T17:04:22.088Z,10.60
2022-08-28T17:06:49.327Z,12.43
2022-08-28T17:09:16.235Z,12.50
2022-08-28T17:11:43.281Z,12.67
2022-08-28T17:14:11.900Z,9.70
2022-08-28T17:16:39.315Z,9.37
2022-08-28T17:19:06.302Z,10.37
2022-08-28T17:21:51.857Z,11.33
2022-08-28T17:24:19.301Z,9.20
2022-08-28T17:26:46.252Z,14.63
2022-08-28T17:29:13.186Z,16.63
2022-08-28T17:31:41.081Z,13.17
2022-08-28T17:34:08.429Z,23.93
2022-08-28T17:36:38.145Z,15.30
2022-08-28T17:39:10.397Z,14.53
2022-08-28T17:41:37.702Z,16.93
2022-08-28T17:44:05.166Z,11.57
2022-08-28T17:46:37.451Z,16.43
2022-08-28T17:49:06.336Z,12.60
2022-08-28T17:51:42.716Z,13.43
2022-08-28T17:54:18.259Z,16.37
2022-08-28T17:56:46.533Z,13.03
2022-08-28T17:59:14.523Z,12.63
2022-08-28T18:01:42.763Z,16.00
2022-08-28T18:04:10.458Z,21.70
2022-08-28T18:06:37.435Z,12.77
2022-08-28T18:09:07.695Z,14.33
2022-08-28T18:11:35.096Z,18.70
2022-08-28T18:14:02.270Z,18.90
2022-08-28T18:16:32.840Z,13.87
2022-08-28T18:19:01.260Z,19.97
2022-08-28T18:21:28.628Z,19.47
2022-08-28T18:23:55.859Z,12.53
2022-08-28T18:26:23.070Z,16.27
2022-08-28T18:28:50.604Z,15.43
2022-08-28T18:31:18.088Z,12.83
2022-08-28T18:33:45.056Z,16.47
2022-08-28T18:36:14.115Z,15.20
2022-08-28T18:38:41.996Z,13.93
2022-08-28T18:41:10.123Z,21.30
2022-08-28T18:43:37.270Z,17.50
2022-08-28T18:46:08.757Z,11.40
2022-08-28T18:48:36.910Z,13.73
2022-08-28T18:51:07.657Z,15.67
2022-08-28T18:53:35.227Z,19.43
2022-08-28T18:56:02.645Z,9.97
2022-08-28T18:58:31.654Z,12.73
2022-08-28T19:01:00.953Z,14.37
2022-08-28T19:03:28.512Z,18.17
2022-08-28T19:05:56.258Z,13.17
2022-08-28T19:08:26.980Z,15.47
2022-08-28T19:10:54.452Z,15.07
2022-08-28T19:13:21.809Z,18.03
2022-08-28T19:15:52.884Z,15.67
2022-08-28T19:18:20.359Z,28.77
2022-08-28T19:20:48.025Z,19.70
2022-08-28T19:23:17.803Z,20.43
2022-08-28T19:25:45.867Z,19.63
2022-08-28T19:28:13.855Z,20.57
2022-08-28T19:30:41.025Z,14.90
2022-08-28T19:33:08.060Z,17.97
2022-08-28T19:35:36.284Z,16.10
2022-08-28T19:38:03.225Z,19.70
2022-08-28T19:40:31.576Z,21.40
2022-08-28T19:42:58.540Z,25.27
2022-08-28T19:45:27.949Z,15.30
2022-08-28T19:47:54.876Z,17.27
2022-08-28T19:50:21.836Z,18.07
2022-08-28T19:52:48.796Z,15.80
2022-08-28T19:55:23.166Z,19.47
2022-08-28T19:57:50.098Z,16.33
2022-08-28T20:00:25.262Z,19.73
2022-08-28T20:02:52.793Z,15.47
2022-08-28T20:05:21.421Z,20.77
2022-08-28T20:07:48.902Z,27.27
2022-08-28T20:10:17.167Z,17.13
2022-08-28T20:12:48.258Z,16.73
2022-08-28T20:15:18.633Z,16.93
2022-08-28T20:17:49.725Z,17.23
2022-08-28T20:20:24.598Z,21.03
2022-08-28T20:22:54.240Z,19.23
2022-08-28T20:25:21.632Z,15.90
2022-08-28T20:27:48.563Z,19.33
2022-08-28T20:30:15.724Z,17.67
2022-08-28T20:32:42.619Z,23.17
2022-08-28T20:35:12.106Z,14.73
2022-08-28T20:37:44.967Z,19.57
2022-08-28T20:40:17.405Z,14.80
2022-08-28T20:42:45.319Z,15.83
2022-08-28T20:45:14.546Z,14.03
2022-08-28T20:47:41.449Z,13.77
2022-08-28T20:50:09.260Z,12.90
2022-08-28T20:52:36.198Z,15.03
2022-08-28T20:55:04.578Z,10.30
2022-08-28T20:57:31.817Z,14.80
2022-08-28T21:00:02.242Z,17.23
2022-08-28T21:02:33.076Z,11.10
2022-08-28T21:05:00.156Z,15.17
2022-08-28T21:07:27.420Z,12.90
2022-08-28T21:10:05.478Z,18.13
2022-08-28T21:12:34.564Z,22.67
2022-08-28T21:15:01.554Z,15.40
2022-08-28T21:17:29.754Z,20.83
2022-08-28T21:20:13.163Z,20.57
2022-08-28T21:22:41.379Z,13.53
2022-08-28T21:25:11.190Z,18.40
2022-08-28T21:27:38.515Z,12.57
2022-08-28T21:30:08.208Z,15.90
2022-08-28T21:32:35.778Z,19.13
2022-08-28T21:35:09.067Z,18.67
2022-08-28T21:37:36.301Z,20.57
2022-08-28T21:40:06.463Z,14.00
2022-08-28T21:42:33.645Z,20.80
2022-08-28T21:45:01.568Z,18.57
2022-08-28T21:47:30.499Z,16.30
2022-08-28T21:49:58.841Z,16.63
2022-08-28T21:52:30.671Z,16.10
2022-08-28T21:55:10.729Z,12.60
2022-08-28T21:57:37.688Z,21.13
2022-08-28T22:00:09.771Z,16.07
2022-08-28T22:02:36.870Z,15.07
2022-08-28T22:05:04.211Z,14.90
2022-08-28T22:07:31.116Z,16.20
2022-08-28T22:09:58.010Z,26.57
2022-08-28T22:12:24.915Z,12.77
2022-08-28T22:14:52.028Z,11.87
2022-08-28T22:17:19.347Z,22.97
2022-08-28T22:19:46.632Z,19.80
2022-08-28T22:22:47.149Z,21.60
2022-08-28T22:25:14.172Z,12.63
2022-08-28T22:27:41.538Z,20.77
2022-08-28T22:30:09.276Z,17.03
2022-08-28T22:32:36.342Z,16.80
2022-08-28T22:35:03.424Z,14.00
2022-08-28T22:37:30.368Z,11.67
2022-08-28T22:39:58.099Z,12.97
2022-08-28T22:42:25.339Z,18.63
2022-08-28T22:44:52.221Z,20.90
2022-08-28T22:47:19.237Z,25.23
2022-08-28T22:49:46.213Z,23.37
2022-08-28T22:52:13.135Z,19.63
2022-08-28T22:54:40.034Z,16.20
2022-08-28T22:57:07.048Z,15.53
2022-08-28T22:59:34.721Z,17.80
2022-08-28T23:02:03.696Z,16.43
2022-08-28T23:04:31.048Z,13.13
2022-08-28T23:06:58.049Z,13.80
2022-08-28T23:09:24.972Z,25.33
2022-08-28T23:11:51.905Z,18.23
2022-08-28T23:14:19.256Z,12.83
2022-08-28T23:16:46.384Z,22.10
2022-08-28T23:19:13.756Z,14.77
2022-08-28T23:21:43.933Z,24.10
2022-08-28T23:24:16.029Z,18.47
2022-08-28T23:26:44.572Z,16.60
2022-08-28T23:29:13.481Z,15.83
2022-08-28T23:31:41.192Z,13.43
2022-08-28T23:34:08.746Z,18.97
2022-08-28T23:36:36.752Z,16.27
2022-08-28T23:39:06.479Z,22.30
2022-08-28T23:41:34.245Z,25.80
2022-08-28T23:44:05.297Z,16.83
2022-08-28T23:46:35.584Z,17.80
2022-08-28T23:49:03.579Z,14.60
2022-08-28T23:51:31.146Z,15.63
2022-08-28T23:53:58.057Z,25.93
2022-08-28T23:56:28.214Z,13.30
2022-08-28T23:58:55.323Z,11.03
